sensor_id;sensor_type;location;lat;lon;timestamp;temperature;humidity
11491;DHT22;5802;52.832;4.758;2023-04-15T00:01:58;24.20;37.70
11491;DHT22;5802;52.832;4.758;2023-04-15T00:04:25;24.20;37.70
11491;DHT22;5802;52.832;4.758;2023-04-15T00:06:53;24.20;37.70
11491;DHT22;5802;52.832;4.758;2023-04-15T00:09:20;24.20;37.70
11491;DHT22;5802;52.832;4.758;2023-04-15T00:11:47;24.10;37.70
11491;DHT22;5802;52.832;4.758;2023-04-15T00:14:13;24.10;37.70
11491;DHT22;5802;52.832;4.758;2023-04-15T00:16:40;24.10;37.70
11491;DHT22;5802;52.832;4.758;2023-04-15T00:19:07;24.20;37.70
11491;DHT22;5802;52.832;4.758;2023-04-15T00:21:34;24.10;37.60
11491;DHT22;5802;52.832;4.758;2023-04-15T00:24:02;24.10;37.60
11491;DHT22;5802;52.832;4.758;2023-04-15T00:26:29;24.10;37.60
11491;DHT22;5802;52.832;4.758;2023-04-15T00:28:56;24.10;37.60
11491;DHT22;5802;52.832;4.758;2023-04-15T00:31:23;24.20;37.60
11491;DHT22;5802;52.832;4.758;2023-04-15T00:33:50;24.10;37.60
11491;DHT22;5802;52.832;4.758;2023-04-15T00:36:16;24.20;37.70
11491;DHT22;5802;52.832;4.758;2023-04-15T00:38:43;24.10;37.60
11491;DHT22;5802;52.832;4.758;2023-04-15T00:41:11;24.10;37.60
11491;DHT22;5802;52.832;4.758;2023-04-15T00:43:38;24.10;37.60
11491;DHT22;5802;52.832;4.758;2023-04-15T00:46:06;24.10;37.60
11491;DHT22;5802;52.832;4.758;2023-04-15T00:48:34;24.10;37.70
11491;DHT22;5802;52.832;4.758;2023-04-15T00:51:01;24.10;37.60
11491;DHT22;5802;52.832;4.758;2023-04-15T00:53:27;24.10;37.60
11491;DHT22;5802;52.832;4.758;2023-04-15T00:55:55;24.10;37.60
11491;DHT22;5802;52.832;4.758;2023-04-15T00:58:23;24.10;37.60
11491;DHT22;5802;52.832;4.758;2023-04-15T01:00:50;24.10;37.60
11491;DHT22;5802;52.832;4.758;2023-04-15T01:03:18;24.10;37.60
11491;DHT22;5802;52.832;4.758;2023-04-15T01:05:45;24.10;37.60
11491;DHT22;5802;52.832;4.758;2023-04-15T01:08:12;24.20;37.70
11491;DHT22;5802;52.832;4.758;2023-04-15T01:10:39;24.10;37.60
11491;DHT22;5802;52.832;4.758;2023-04-15T01:13:06;24.10;37.60
11491;DHT22;5802;52.832;4.758;2023-04-15T01:15:34;24.10;37.60
11491;DHT22;5802;52.832;4.758;2023-04-15T01:18:02;24.10;37.60
11491;DHT22;5802;52.832;4.758;2023-04-15T01:20:28;24.10;37.60
11491;DHT22;5802;52.832;4.758;2023-04-15T01:22:55;24.10;37.70
11491;DHT22;5802;52.832;4.758;2023-04-15T01:25:30;24.10;37.70
11491;DHT22;5802;52.832;4.758;2023-04-15T01:27:57;24.10;37.70
11491;DHT22;5802;52.832;4.758;2023-04-15T01:30:24;24.10;37.60
11491;DHT22;5802;52.832;4.758;2023-04-15T01:32:51;24.10;37.70
11491;DHT22;5802;52.832;4.758;2023-04-15T01:35:18;24.10;37.60
11491;DHT22;5802;52.832;4.758;2023-04-15T01:37:45;24.10;37.60
11491;DHT22;5802;52.832;4.758;2023-04-15T01:40:12;24.10;37.60
11491;DHT22;5802;52.832;4.758;2023-04-15T01:42:41;24.10;37.60
11491;DHT22;5802;52.832;4.758;2023-04-15T01:45:08;24.10;37.50
11491;DHT22;5802;52.832;4.758;2023-04-15T01:47:35;24.10;38.20
11491;DHT22;5802;52.832;4.758;2023-04-15T01:50:02;24.10;37.50
11491;DHT22;5802;52.832;4.758;2023-04-15T01:52:29;24.10;37.50
11491;DHT22;5802;52.832;4.758;2023-04-15T01:54:56;24.10;37.60
11491;DHT22;5802;52.832;4.758;2023-04-15T01:57:23;24.10;37.60
11491;DHT22;5802;52.832;4.758;2023-04-15T01:59:51;24.10;37.50
11491;DHT22;5802;52.832;4.758;2023-04-15T02:02:17;24.10;37.60
11491;DHT22;5802;52.832;4.758;2023-04-15T02:04:44;24.10;37.60
11491;DHT22;5802;52.832;4.758;2023-04-15T02:07:11;24.10;37.60
11491;DHT22;5802;52.832;4.758;2023-04-15T02:09:37;24.10;37.60
11491;DHT22;5802;52.832;4.758;2023-04-15T02:12:04;24.10;37.60
11491;DHT22;5802;52.832;4.758;2023-04-15T02:14:31;24.10;37.60
11491;DHT22;5802;52.832;4.758;2023-04-15T02:16:59;24.10;37.60
11491;DHT22;5802;52.832;4.758;2023-04-15T02:19:31;24.10;37.60
11491;DHT22;5802;52.832;4.758;2023-04-15T02:21:58;24.10;37.60
11491;DHT22;5802;52.832;4.758;2023-04-15T02:24:26;24.10;37.60
11491;DHT22;5802;52.832;4.758;2023-04-15T02:26:53;24.10;37.60
11491;DHT22;5802;52.832;4.758;2023-04-15T02:29:20;24.10;37.60
11491;DHT22;5802;52.832;4.758;2023-04-15T02:31:47;24.10;37.60
11491;DHT22;5802;52.832;4.758;2023-04-15T02:34:15;24.10;37.60
11491;DHT22;5802;52.832;4.758;2023-04-15T02:36:42;24.00;37.50
11491;DHT22;5802;52.832;4.758;2023-04-15T02:39:09;24.10;37.60
11491;DHT22;5802;52.832;4.758;2023-04-15T02:41:37;24.10;37.60
11491;DHT22;5802;52.832;4.758;2023-04-15T02:44:04;24.10;37.60
11491;DHT22;5802;52.832;4.758;2023-04-15T02:46:31;24.10;37.50
11491;DHT22;5802;52.832;4.758;2023-04-15T02:48:58;24.10;37.50
11491;DHT22;5802;52.832;4.758;2023-04-15T02:51:29;24.10;37.50
11491;DHT22;5802;52.832;4.758;2023-04-15T02:53:56;24.10;37.50
11491;DHT22;5802;52.832;4.758;2023-04-15T02:56:23;24.10;37.50
11491;DHT22;5802;52.832;4.758;2023-04-15T02:58:50;24.10;37.50
11491;DHT22;5802;52.832;4.758;2023-04-15T03:01:20;24.10;37.50
11491;DHT22;5802;52.832;4.758;2023-04-15T03:03:48;24.10;37.50
11491;DHT22;5802;52.832;4.758;2023-04-15T03:06:14;24.10;37.50
11491;DHT22;5802;52.832;4.758;2023-04-15T03:08:42;24.10;37.50
11491;DHT22;5802;52.832;4.758;2023-04-15T03:11:09;24.10;37.50
11491;DHT22;5802;52.832;4.758;2023-04-15T03:13:37;24.10;37.50
11491;DHT22;5802;52.832;4.758;2023-04-15T03:16:06;24.10;37.50
11491;DHT22;5802;52.832;4.758;2023-04-15T03:18:33;24.10;37.50
11491;DHT22;5802;52.832;4.758;2023-04-15T03:21:00;24.10;37.50
11491;DHT22;5802;52.832;4.758;2023-04-15T03:23:27;24.10;37.50
11491;DHT22;5802;52.832;4.758;2023-04-15T03:25:55;24.10;37.50
11491;DHT22;5802;52.832;4.758;2023-04-15T03:28:22;24.10;37.50
11491;DHT22;5802;52.832;4.758;2023-04-15T03:30:49;24.10;37.50
11491;DHT22;5802;52.832;4.758;2023-04-15T03:33:16;24.10;37.50
11491;DHT22;5802;52.832;4.758;2023-04-15T03:35:42;24.10;37.50
11491;DHT22;5802;52.832;4.758;2023-04-15T03:38:09;24.10;37.50
11491;DHT22;5802;52.832;4.758;2023-04-15T03:40:37;24.10;37.50
11491;DHT22;5802;52.832;4.758;2023-04-15T03:43:05;24.10;37.50
11491;DHT22;5802;52.832;4.758;2023-04-15T03:45:32;24.10;37.50
11491;DHT22;5802;52.832;4.758;2023-04-15T03:47:58;24.10;37.50
11491;DHT22;5802;52.832;4.758;2023-04-15T03:50:25;24.10;37.50
11491;DHT22;5802;52.832;4.758;2023-04-15T03:52:52;24.00;37.50
11491;DHT22;5802;52.832;4.758;2023-04-15T03:55:18;24.00;37.50
11491;DHT22;5802;52.832;4.758;2023-04-15T03:57:45;24.00;37.50
11491;DHT22;5802;52.832;4.758;2023-04-15T04:00:14;24.00;37.60
11491;DHT22;5802;52.832;4.758;2023-04-15T04:02:41;24.00;37.60
11491;DHT22;5802;52.832;4.758;2023-04-15T04:05:08;24.00;37.60
11491;DHT22;5802;52.832;4.758;2023-04-15T04:07:35;24.00;37.60
11491;DHT22;5802;52.832;4.758;2023-04-15T04:10:02;24.00;37.60
11491;DHT22;5802;52.832;4.758;2023-04-15T04:12:29;24.00;37.60
11491;DHT22;5802;52.832;4.758;2023-04-15T04:14:55;24.00;37.70
11491;DHT22;5802;52.832;4.758;2023-04-15T04:17:23;24.00;37.70
11491;DHT22;5802;52.832;4.758;2023-04-15T04:19:50;24.00;37.80
11491;DHT22;5802;52.832;4.758;2023-04-15T04:22:17;24.00;37.70
11491;DHT22;5802;52.832;4.758;2023-04-15T04:24:47;24.00;38.40
11491;DHT22;5802;52.832;4.758;2023-04-15T04:27:13;24.00;37.80
11491;DHT22;5802;52.832;4.758;2023-04-15T04:29:40;24.00;37.80
11491;DHT22;5802;52.832;4.758;2023-04-15T04:32:07;24.00;37.80
11491;DHT22;5802;52.832;4.758;2023-04-15T04:34:35;24.00;37.80
11491;DHT22;5802;52.832;4.758;2023-04-15T04:37:01;24.00;37.80
11491;DHT22;5802;52.832;4.758;2023-04-15T04:39:28;24.00;37.80
11491;DHT22;5802;52.832;4.758;2023-04-15T04:41:55;24.00;37.80
11491;DHT22;5802;52.832;4.758;2023-04-15T04:44:21;24.00;37.80
11491;DHT22;5802;52.832;4.758;2023-04-15T04:46:48;24.00;37.80
11491;DHT22;5802;52.832;4.758;2023-04-15T04:49:15;24.00;37.80
11491;DHT22;5802;52.832;4.758;2023-04-15T04:51:43;24.00;37.80
11491;DHT22;5802;52.832;4.758;2023-04-15T04:54:11;24.00;37.80
11491;DHT22;5802;52.832;4.758;2023-04-15T04:56:38;24.00;37.70
11491;DHT22;5802;52.832;4.758;2023-04-15T04:59:04;24.00;37.80
11491;DHT22;5802;52.832;4.758;2023-04-15T05:01:32;24.00;37.80
11491;DHT22;5802;52.832;4.758;2023-04-15T05:03:59;24.00;37.80
11491;DHT22;5802;52.832;4.758;2023-04-15T05:06:25;24.00;37.80
11491;DHT22;5802;52.832;4.758;2023-04-15T05:08:56;24.00;37.80
11491;DHT22;5802;52.832;4.758;2023-04-15T05:11:22;24.00;37.70
11491;DHT22;5802;52.832;4.758;2023-04-15T05:13:49;24.00;37.70
11491;DHT22;5802;52.832;4.758;2023-04-15T05:16:16;24.00;37.80
11491;DHT22;5802;52.832;4.758;2023-04-15T05:18:44;24.00;37.80
11491;DHT22;5802;52.832;4.758;2023-04-15T05:21:11;24.00;37.70
11491;DHT22;5802;52.832;4.758;2023-04-15T05:23:37;24.00;37.80
11491;DHT22;5802;52.832;4.758;2023-04-15T05:26:05;24.00;37.70
11491;DHT22;5802;52.832;4.758;2023-04-15T05:28:32;24.00;37.70
11491;DHT22;5802;52.832;4.758;2023-04-15T05:30:59;24.00;37.70
11491;DHT22;5802;52.832;4.758;2023-04-15T05:33:26;24.00;37.70
11491;DHT22;5802;52.832;4.758;2023-04-15T05:35:52;24.00;37.70
11491;DHT22;5802;52.832;4.758;2023-04-15T05:38:19;24.00;37.70
11491;DHT22;5802;52.832;4.758;2023-04-15T05:40:46;24.00;37.70
11491;DHT22;5802;52.832;4.758;2023-04-15T05:43:14;24.00;37.80
11491;DHT22;5802;52.832;4.758;2023-04-15T05:45:40;24.00;37.80
11491;DHT22;5802;52.832;4.758;2023-04-15T05:48:07;24.00;37.80
11491;DHT22;5802;52.832;4.758;2023-04-15T05:50:34;24.00;37.80
11491;DHT22;5802;52.832;4.758;2023-04-15T05:53:00;24.00;37.80
11491;DHT22;5802;52.832;4.758;2023-04-15T05:55:27;24.00;37.80
11491;DHT22;5802;52.832;4.758;2023-04-15T05:57:54;24.00;37.70
11491;DHT22;5802;52.832;4.758;2023-04-15T06:00:22;24.00;37.80
11491;DHT22;5802;52.832;4.758;2023-04-15T06:02:49;24.00;37.70
11491;DHT22;5802;52.832;4.758;2023-04-15T06:05:16;24.00;37.80
11491;DHT22;5802;52.832;4.758;2023-04-15T06:07:42;24.00;37.70
11491;DHT22;5802;52.832;4.758;2023-04-15T06:10:09;24.10;37.80
11491;DHT22;5802;52.832;4.758;2023-04-15T06:12:36;24.10;37.80
11491;DHT22;5802;52.832;4.758;2023-04-15T06:15:03;24.10;37.80
11491;DHT22;5802;52.832;4.758;2023-04-15T06:17:32;24.10;37.80
11491;DHT22;5802;52.832;4.758;2023-04-15T06:19:59;24.10;37.80
11491;DHT22;5802;52.832;4.758;2023-04-15T06:22:25;24.10;37.80
11491;DHT22;5802;52.832;4.758;2023-04-15T06:24:52;24.10;37.80
11491;DHT22;5802;52.832;4.758;2023-04-15T06:27:19;24.10;37.80
11491;DHT22;5802;52.832;4.758;2023-04-15T06:29:47;24.10;37.80
11491;DHT22;5802;52.832;4.758;2023-04-15T06:32:14;24.20;37.80
11491;DHT22;5802;52.832;4.758;2023-04-15T06:34:42;24.20;37.80
11491;DHT22;5802;52.832;4.758;2023-04-15T06:37:08;24.20;37.70
11491;DHT22;5802;52.832;4.758;2023-04-15T06:39:40;24.20;37.70
11491;DHT22;5802;52.832;4.758;2023-04-15T06:42:07;24.20;37.70
11491;DHT22;5802;52.832;4.758;2023-04-15T06:44:33;24.20;37.70
11491;DHT22;5802;52.832;4.758;2023-04-15T06:47:01;24.20;37.70
11491;DHT22;5802;52.832;4.758;2023-04-15T06:49:28;24.30;37.80
11491;DHT22;5802;52.832;4.758;2023-04-15T06:51:56;24.30;37.90
11491;DHT22;5802;52.832;4.758;2023-04-15T06:54:23;24.30;37.90
11491;DHT22;5802;52.832;4.758;2023-04-15T06:56:49;24.30;37.90
11491;DHT22;5802;52.832;4.758;2023-04-15T06:59:16;24.40;38.00
11491;DHT22;5802;52.832;4.758;2023-04-15T07:01:43;24.40;38.00
11491;DHT22;5802;52.832;4.758;2023-04-15T07:04:10;24.50;38.00
11491;DHT22;5802;52.832;4.758;2023-04-15T07:06:37;24.50;38.10
11491;DHT22;5802;52.832;4.758;2023-04-15T07:09:05;24.50;38.10
11491;DHT22;5802;52.832;4.758;2023-04-15T07:11:31;24.60;38.30
11491;DHT22;5802;52.832;4.758;2023-04-15T07:13:58;24.60;38.30
11491;DHT22;5802;52.832;4.758;2023-04-15T07:16:25;24.70;38.30
11491;DHT22;5802;52.832;4.758;2023-04-15T07:18:51;24.70;38.30
11491;DHT22;5802;52.832;4.758;2023-04-15T07:21:18;24.70;38.20
11491;DHT22;5802;52.832;4.758;2023-04-15T07:23:46;24.80;38.20
11491;DHT22;5802;52.832;4.758;2023-04-15T07:26:14;24.80;38.10
11491;DHT22;5802;52.832;4.758;2023-04-15T07:28:41;24.90;38.20
11491;DHT22;5802;52.832;4.758;2023-04-15T07:31:08;24.90;38.20
11491;DHT22;5802;52.832;4.758;2023-04-15T07:33:35;25.00;38.10
11491;DHT22;5802;52.832;4.758;2023-04-15T07:36:01;25.00;38.00
11491;DHT22;5802;52.832;4.758;2023-04-15T07:38:28;25.10;38.10
11491;DHT22;5802;52.832;4.758;2023-04-15T07:40:55;25.10;38.00
11491;DHT22;5802;52.832;4.758;2023-04-15T07:43:24;25.10;38.00
11491;DHT22;5802;52.832;4.758;2023-04-15T07:45:50;25.20;38.00
11491;DHT22;5802;52.832;4.758;2023-04-15T07:48:17;25.20;37.90
11491;DHT22;5802;52.832;4.758;2023-04-15T07:50:44;25.30;37.90
11491;DHT22;5802;52.832;4.758;2023-04-15T07:53:10;25.30;37.80
11491;DHT22;5802;52.832;4.758;2023-04-15T07:55:37;25.40;37.80
11491;DHT22;5802;52.832;4.758;2023-04-15T07:58:04;25.40;37.70
11491;DHT22;5802;52.832;4.758;2023-04-15T08:00:32;25.50;37.70
11491;DHT22;5802;52.832;4.758;2023-04-15T08:02:59;25.50;37.70
11491;DHT22;5802;52.832;4.758;2023-04-15T08:05:26;25.60;37.60
11491;DHT22;5802;52.832;4.758;2023-04-15T08:07:53;25.60;37.60
11491;DHT22;5802;52.832;4.758;2023-04-15T08:10:19;25.70;37.50
11491;DHT22;5802;52.832;4.758;2023-04-15T08:12:47;25.70;37.50
11491;DHT22;5802;52.832;4.758;2023-04-15T08:15:14;25.80;37.50
11491;DHT22;5802;52.832;4.758;2023-04-15T08:17:42;25.80;37.40
11491;DHT22;5802;52.832;4.758;2023-04-15T08:20:09;25.90;37.30
11491;DHT22;5802;52.832;4.758;2023-04-15T08:22:37;25.90;37.30
11491;DHT22;5802;52.832;4.758;2023-04-15T08:25:04;26.00;37.30
11491;DHT22;5802;52.832;4.758;2023-04-15T08:27:31;26.00;37.20
11491;DHT22;5802;52.832;4.758;2023-04-15T08:29:58;26.10;37.20
11491;DHT22;5802;52.832;4.758;2023-04-15T08:32:25;26.10;37.10
11491;DHT22;5802;52.832;4.758;2023-04-15T08:34:53;26.10;37.10
11491;DHT22;5802;52.832;4.758;2023-04-15T08:37:19;26.20;37.70
11491;DHT22;5802;52.832;4.758;2023-04-15T08:39:47;26.20;36.90
11491;DHT22;5802;52.832;4.758;2023-04-15T08:42:16;26.30;36.90
11491;DHT22;5802;52.832;4.758;2023-04-15T08:44:43;26.30;36.90
11491;DHT22;5802;52.832;4.758;2023-04-15T08:47:12;26.30;36.80
11491;DHT22;5802;52.832;4.758;2023-04-15T08:49:40;26.40;36.80
11491;DHT22;5802;52.832;4.758;2023-04-15T08:52:09;26.40;36.70
11491;DHT22;5802;52.832;4.758;2023-04-15T08:54:37;26.50;36.70
11491;DHT22;5802;52.832;4.758;2023-04-15T08:57:04;26.50;36.60
11491;DHT22;5802;52.832;4.758;2023-04-15T08:59:31;26.60;36.60
11491;DHT22;5802;52.832;4.758;2023-04-15T09:01:58;26.60;36.50
11491;DHT22;5802;52.832;4.758;2023-04-15T09:04:25;26.70;36.40
11491;DHT22;5802;52.832;4.758;2023-04-15T09:06:53;26.70;36.10
11491;DHT22;5802;52.832;4.758;2023-04-15T09:09:21;26.80;36.00
11491;DHT22;5802;52.832;4.758;2023-04-15T09:11:47;26.80;35.70
11491;DHT22;5802;52.832;4.758;2023-04-15T09:14:15;26.80;35.40
11491;DHT22;5802;52.832;4.758;2023-04-15T09:17:01;26.90;35.10
11491;DHT22;5802;52.832;4.758;2023-04-15T09:19:28;26.90;34.60
11491;DHT22;5802;52.832;4.758;2023-04-15T09:21:56;26.90;34.30
11491;DHT22;5802;52.832;4.758;2023-04-15T09:24:41;26.90;34.10
11491;DHT22;5802;52.832;4.758;2023-04-15T09:27:08;26.90;33.80
11491;DHT22;5802;52.832;4.758;2023-04-15T09:29:35;26.90;33.70
11491;DHT22;5802;52.832;4.758;2023-04-15T09:32:09;27.00;33.70
11491;DHT22;5802;52.832;4.758;2023-04-15T09:34:36;27.00;33.50
11491;DHT22;5802;52.832;4.758;2023-04-15T09:37:03;27.00;33.20
11491;DHT22;5802;52.832;4.758;2023-04-15T09:39:46;27.00;33.00
11491;DHT22;5802;52.832;4.758;2023-04-15T09:42:14;27.00;32.80
11491;DHT22;5802;52.832;4.758;2023-04-15T09:44:42;27.00;32.80
11491;DHT22;5802;52.832;4.758;2023-04-15T09:47:08;26.90;32.70
11491;DHT22;5802;52.832;4.758;2023-04-15T09:49:35;26.90;32.70
11491;DHT22;5802;52.832;4.758;2023-04-15T09:52:02;26.90;32.50
11491;DHT22;5802;52.832;4.758;2023-04-15T09:54:33;26.90;32.40
11491;DHT22;5802;52.832;4.758;2023-04-15T09:57:06;26.90;32.50
11491;DHT22;5802;52.832;4.758;2023-04-15T09:59:32;26.90;32.40
11491;DHT22;5802;52.832;4.758;2023-04-15T10:02:01;26.80;32.20
11491;DHT22;5802;52.832;4.758;2023-04-15T10:04:29;26.80;32.10
11491;DHT22;5802;52.832;4.758;2023-04-15T10:06:58;26.80;32.10
11491;DHT22;5802;52.832;4.758;2023-04-15T10:09:26;26.80;32.20
11491;DHT22;5802;52.832;4.758;2023-04-15T10:11:53;26.80;32.00
11491;DHT22;5802;52.832;4.758;2023-04-15T10:14:23;26.70;32.00
11491;DHT22;5802;52.832;4.758;2023-04-15T10:16:52;26.70;31.90
11491;DHT22;5802;52.832;4.758;2023-04-15T10:19:24;26.70;31.80
11491;DHT22;5802;52.832;4.758;2023-04-15T10:21:53;26.70;31.60
11491;DHT22;5802;52.832;4.758;2023-04-15T10:24:20;26.70;31.60
11491;DHT22;5802;52.832;4.758;2023-04-15T10:26:49;26.70;31.60
11491;DHT22;5802;52.832;4.758;2023-04-15T10:29:16;26.70;31.80
11491;DHT22;5802;52.832;4.758;2023-04-15T10:31:47;26.60;31.50
11491;DHT22;5802;52.832;4.758;2023-04-15T10:34:14;26.70;31.70
11491;DHT22;5802;52.832;4.758;2023-04-15T10:36:41;26.60;31.50
11491;DHT22;5802;52.832;4.758;2023-04-15T10:39:42;26.60;31.40
11491;DHT22;5802;52.832;4.758;2023-04-15T10:42:11;26.60;31.50
11491;DHT22;5802;52.832;4.758;2023-04-15T10:44:38;26.50;31.60
11491;DHT22;5802;52.832;4.758;2023-04-15T10:47:12;26.50;31.60
11491;DHT22;5802;52.832;4.758;2023-04-15T10:49:43;26.50;31.40
11491;DHT22;5802;52.832;4.758;2023-04-15T10:52:10;26.50;31.40
11491;DHT22;5802;52.832;4.758;2023-04-15T10:54:37;26.50;31.50
11491;DHT22;5802;52.832;4.758;2023-04-15T10:57:08;26.50;31.50
11491;DHT22;5802;52.832;4.758;2023-04-15T10:59:59;26.50;31.40
11491;DHT22;5802;52.832;4.758;2023-04-15T11:02:39;26.40;31.10
11491;DHT22;5802;52.832;4.758;2023-04-15T11:05:07;26.40;31.10
11491;DHT22;5802;52.832;4.758;2023-04-15T11:07:39;26.40;30.90
11491;DHT22;5802;52.832;4.758;2023-04-15T11:13:22;26.30;30.80
11491;DHT22;5802;52.832;4.758;2023-04-15T11:15:55;26.30;30.90
11491;DHT22;5802;52.832;4.758;2023-04-15T11:18:25;26.30;30.90
11491;DHT22;5802;52.832;4.758;2023-04-15T11:20:54;26.30;30.90
11491;DHT22;5802;52.832;4.758;2023-04-15T11:23:27;26.30;30.90
11491;DHT22;5802;52.832;4.758;2023-04-15T11:25:55;26.30;31.00
11491;DHT22;5802;52.832;4.758;2023-04-15T11:28:24;26.30;30.90
11491;DHT22;5802;52.832;4.758;2023-04-15T11:30:51;26.20;30.80
11491;DHT22;5802;52.832;4.758;2023-04-15T11:33:18;26.30;30.80
11491;DHT22;5802;52.832;4.758;2023-04-15T11:35:47;26.30;31.40
11491;DHT22;5802;52.832;4.758;2023-04-15T11:38:14;26.30;30.90
11491;DHT22;5802;52.832;4.758;2023-04-15T11:40:42;26.30;31.00
11491;DHT22;5802;52.832;4.758;2023-04-15T11:43:10;26.30;31.00
11491;DHT22;5802;52.832;4.758;2023-04-15T11:45:38;26.30;31.00
11491;DHT22;5802;52.832;4.758;2023-04-15T11:48:13;26.30;31.10
11491;DHT22;5802;52.832;4.758;2023-04-15T11:50:40;26.30;31.20
11491;DHT22;5802;52.832;4.758;2023-04-15T11:53:09;26.30;31.20
11491;DHT22;5802;52.832;4.758;2023-04-15T11:55:43;26.30;31.20
11491;DHT22;5802;52.832;4.758;2023-04-15T11:58:12;26.30;31.20
11491;DHT22;5802;52.832;4.758;2023-04-15T12:00:40;26.30;31.10
11491;DHT22;5802;52.832;4.758;2023-04-15T12:03:18;26.30;31.10
11491;DHT22;5802;52.832;4.758;2023-04-15T12:06:08;26.30;30.90
11491;DHT22;5802;52.832;4.758;2023-04-15T12:08:59;26.30;30.70
11491;DHT22;5802;52.832;4.758;2023-04-15T12:11:31;26.30;30.70
11491;DHT22;5802;52.832;4.758;2023-04-15T12:14:02;26.20;30.50
11491;DHT22;5802;52.832;4.758;2023-04-15T12:16:30;26.30;30.50
11491;DHT22;5802;52.832;4.758;2023-04-15T12:18:58;26.20;30.60
11491;DHT22;5802;52.832;4.758;2023-04-15T12:21:26;26.30;30.50
11491;DHT22;5802;52.832;4.758;2023-04-15T12:23:56;26.20;30.40
11491;DHT22;5802;52.832;4.758;2023-04-15T12:26:26;26.20;30.50
11491;DHT22;5802;52.832;4.758;2023-04-15T12:28:53;26.20;30.60
11491;DHT22;5802;52.832;4.758;2023-04-15T12:31:21;26.20;30.60
11491;DHT22;5802;52.832;4.758;2023-04-15T12:33:48;26.20;30.60
11491;DHT22;5802;52.832;4.758;2023-04-15T12:36:15;26.20;30.60
11491;DHT22;5802;52.832;4.758;2023-04-15T12:38:42;26.20;30.60
11491;DHT22;5802;52.832;4.758;2023-04-15T12:41:10;26.20;30.60
11491;DHT22;5802;52.832;4.758;2023-04-15T12:43:36;26.10;30.50
11491;DHT22;5802;52.832;4.758;2023-04-15T12:46:03;26.10;30.50
11491;DHT22;5802;52.832;4.758;2023-04-15T12:48:31;26.10;30.60
11491;DHT22;5802;52.832;4.758;2023-04-15T12:50:58;26.10;30.50
11491;DHT22;5802;52.832;4.758;2023-04-15T12:53:25;26.00;30.40
11491;DHT22;5802;52.832;4.758;2023-04-15T12:55:52;26.00;30.40
11491;DHT22;5802;52.832;4.758;2023-04-15T12:58:20;26.00;30.40
11491;DHT22;5802;52.832;4.758;2023-04-15T13:00:46;26.00;30.50
11491;DHT22;5802;52.832;4.758;2023-04-15T13:03:14;26.00;30.50
11491;DHT22;5802;52.832;4.758;2023-04-15T13:05:41;25.90;30.40
11491;DHT22;5802;52.832;4.758;2023-04-15T13:08:07;25.90;30.60
11491;DHT22;5802;52.832;4.758;2023-04-15T13:10:35;25.90;30.70
11491;DHT22;5802;52.832;4.758;2023-04-15T13:13:04;25.80;30.70
11491;DHT22;5802;52.832;4.758;2023-04-15T13:15:32;25.80;30.60
11491;DHT22;5802;52.832;4.758;2023-04-15T13:18:00;25.80;30.70
11491;DHT22;5802;52.832;4.758;2023-04-15T13:20:27;25.80;30.80
11491;DHT22;5802;52.832;4.758;2023-04-15T13:22:53;25.80;30.80
11491;DHT22;5802;52.832;4.758;2023-04-15T13:25:20;25.70;30.70
11491;DHT22;5802;52.832;4.758;2023-04-15T13:27:47;25.70;31.40
11491;DHT22;5802;52.832;4.758;2023-04-15T13:30:13;25.70;30.80
11491;DHT22;5802;52.832;4.758;2023-04-15T13:32:42;25.60;30.70
11491;DHT22;5802;52.832;4.758;2023-04-15T13:35:08;25.60;30.70
11491;DHT22;5802;52.832;4.758;2023-04-15T13:37:35;25.60;30.70
11491;DHT22;5802;52.832;4.758;2023-04-15T13:40:04;25.60;30.70
11491;DHT22;5802;52.832;4.758;2023-04-15T13:42:32;25.60;30.80
11491;DHT22;5802;52.832;4.758;2023-04-15T13:44:59;25.50;30.60
11491;DHT22;5802;52.832;4.758;2023-04-15T13:47:26;25.50;30.50
11491;DHT22;5802;52.832;4.758;2023-04-15T13:49:54;25.50;30.40
11491;DHT22;5802;52.832;4.758;2023-04-15T13:52:21;25.50;30.30
11491;DHT22;5802;52.832;4.758;2023-04-15T13:54:47;25.50;30.20
11491;DHT22;5802;52.832;4.758;2023-04-15T13:57:14;25.50;30.20
11491;DHT22;5802;52.832;4.758;2023-04-15T13:59:41;25.50;30.30
11491;DHT22;5802;52.832;4.758;2023-04-15T14:02:08;25.50;30.30
11491;DHT22;5802;52.832;4.758;2023-04-15T14:04:35;25.50;30.30
11491;DHT22;5802;52.832;4.758;2023-04-15T14:07:03;25.50;30.50
11491;DHT22;5802;52.832;4.758;2023-04-15T14:09:30;25.40;30.50
11491;DHT22;5802;52.832;4.758;2023-04-15T14:11:56;25.40;30.40
11491;DHT22;5802;52.832;4.758;2023-04-15T14:14:24;25.40;30.60
11491;DHT22;5802;52.832;4.758;2023-04-15T14:16:51;25.40;30.50
11491;DHT22;5802;52.832;4.758;2023-04-15T14:19:17;25.30;30.50
11491;DHT22;5802;52.832;4.758;2023-04-15T14:21:44;25.30;30.60
11491;DHT22;5802;52.832;4.758;2023-04-15T14:24:12;25.30;30.70
11491;DHT22;5802;52.832;4.758;2023-04-15T14:26:39;25.30;30.70
11491;DHT22;5802;52.832;4.758;2023-04-15T14:29:05;25.30;30.70
11491;DHT22;5802;52.832;4.758;2023-04-15T14:31:32;25.30;30.70
11491;DHT22;5802;52.832;4.758;2023-04-15T14:33:59;25.20;30.60
11491;DHT22;5802;52.832;4.758;2023-04-15T14:36:26;25.20;30.60
11491;DHT22;5802;52.832;4.758;2023-04-15T14:38:52;25.20;30.60
11491;DHT22;5802;52.832;4.758;2023-04-15T14:41:20;25.20;30.60
11491;DHT22;5802;52.832;4.758;2023-04-15T14:43:48;25.10;30.70
11491;DHT22;5802;52.832;4.758;2023-04-15T14:46:16;25.10;30.80
11491;DHT22;5802;52.832;4.758;2023-04-15T14:48:43;25.10;30.90
11491;DHT22;5802;52.832;4.758;2023-04-15T14:51:09;25.10;31.10
11491;DHT22;5802;52.832;4.758;2023-04-15T14:53:36;25.00;31.00
11491;DHT22;5802;52.832;4.758;2023-04-15T14:56:03;25.00;31.00
11491;DHT22;5802;52.832;4.758;2023-04-15T14:58:31;25.00;31.10
11491;DHT22;5802;52.832;4.758;2023-04-15T15:00:58;24.90;31.20
11491;DHT22;5802;52.832;4.758;2023-04-15T15:03:26;24.90;31.10
11491;DHT22;5802;52.832;4.758;2023-04-15T15:05:53;24.90;31.00
11491;DHT22;5802;52.832;4.758;2023-04-15T15:08:19;24.90;31.00
11491;DHT22;5802;52.832;4.758;2023-04-15T15:10:46;24.80;31.00
11491;DHT22;5802;52.832;4.758;2023-04-15T15:13:13;24.80;31.00
11491;DHT22;5802;52.832;4.758;2023-04-15T15:15:43;24.80;31.00
11491;DHT22;5802;52.832;4.758;2023-04-15T15:18:10;24.70;30.90
11491;DHT22;5802;52.832;4.758;2023-04-15T15:20:37;24.70;30.90
11491;DHT22;5802;52.832;4.758;2023-04-15T15:23:03;24.70;30.90
11491;DHT22;5802;52.832;4.758;2023-04-15T15:25:30;24.70;31.00
11491;DHT22;5802;52.832;4.758;2023-04-15T15:27:57;24.70;31.00
11491;DHT22;5802;52.832;4.758;2023-04-15T15:30:23;24.70;31.00
11491;DHT22;5802;52.832;4.758;2023-04-15T15:32:52;24.60;31.20
11491;DHT22;5802;52.832;4.758;2023-04-15T15:35:18;24.60;31.70
11491;DHT22;5802;52.832;4.758;2023-04-15T15:37:47;24.50;32.00
11491;DHT22;5802;52.832;4.758;2023-04-15T15:40:13;24.50;32.30
11491;DHT22;5802;52.832;4.758;2023-04-15T15:42:40;24.50;32.50
11491;DHT22;5802;52.832;4.758;2023-04-15T15:45:07;24.50;32.70
11491;DHT22;5802;52.832;4.758;2023-04-15T15:47:34;24.50;32.80
11491;DHT22;5802;52.832;4.758;2023-04-15T15:50:02;24.60;33.00
11491;DHT22;5802;52.832;4.758;2023-04-15T15:52:29;24.60;33.20